Time;durP1;ratioP1;P1;durP2;ratioP2;P2;SDS_P1;SDS_P2;PMS_P1;PMS_P2;Temp;Humidity;BMP_temperature;BMP_pressure;BME280_temperature;BME280_humidity;BME280_pressure;Samples;Min_cycle;Max_cycle;Signal;HPM_P1;HPM_P2
2022/01/23 00:00:35;;;;;;;6.82;3.90;;;5.60;99.90;;;;;;5028984;28;20045;-66
2022/01/23 00:03:08;;;;;;;9.25;4.18;;;5.60;99.90;;;;;;5014654;28;20113;-66
2022/01/23 00:05:37;;;;;;;;;;;5.60;99.90;;;;;;5013963;28;20419;-66
2022/01/23 00:08:05;;;;;;;6.68;4.22;;;5.60;99.90;;;;;;5034573;28;19920;-66
2022/01/23 00:10:30;;;;;;;6.25;3.50;;;5.60;99.90;;;;;;5029772;28;20102;-66
2022/01/23 00:13:08;;;;;;;6.50;3.28;;;5.60;99.90;;;;;;5031412;28;20638;-66
2022/01/23 00:18:20;;;;;;;6.38;3.00;;;5.60;99.90;;;;;;5030215;28;20551;-66
2022/01/23 00:20:47;;;;;;;7.05;2.90;;;5.60;99.90;;;;;;5012906;28;20513;-66
2022/01/23 00:23:28;;;;;;;6.20;2.70;;;5.60;99.90;;;;;;5030900;28;20546;-67
2022/01/23 00:31:24;;;;;;;10.98;3.72;;;5.60;99.90;;;;;;5028463;28;20499;-66
2022/01/23 00:33:51;;;;;;;9.20;3.83;;;5.60;99.90;;;;;;5025981;28;20056;-66
2022/01/23 00:36:17;;;;;;;10.70;4.00;;;5.60;99.90;;;;;;5034902;28;20376;-66
2022/01/23 00:38:43;;;;;;;7.97;3.88;;;5.50;99.90;;;;;;5027206;28;20060;-66
2022/01/23 00:41:09;;;;;;;7.88;3.83;;;5.60;99.90;;;;;;5026249;28;20147;-66
2022/01/23 00:43:38;;;;;;;9.98;3.85;;;5.60;99.90;;;;;;5027896;28;20402;-66
2022/01/23 00:49:24;;;;;;;8.88;4.32;;;5.50;99.90;;;;;;5011357;28;20041;-66
2022/01/23 00:51:38;;;;;;;9.57;4.40;;;5.60;99.90;;;;;;5038840;28;20056;-66
2022/01/23 00:54:09;;;;;;;8.23;4.15;;;5.60;99.90;;;;;;5028416;28;20048;-66
2022/01/23 00:56:35;;;;;;;7.82;3.95;;;5.60;99.90;;;;;;5028320;28;20384;-66
2022/01/23 00:59:02;;;;;;;10.98;4.95;;;5.50;99.90;;;;;;5029834;28;20150;-66
2022/01/23 01:01:28;;;;;;;8.70;4.50;;;5.60;99.90;;;;;;4999526;28;20057;-66
2022/01/23 01:03:54;;;;;;;6.68;4.00;;;5.60;99.90;;;;;;5029945;28;20109;-66
2022/01/23 01:06:20;;;;;;;11.27;4.72;;;5.60;99.90;;;;;;5025904;28;20044;-66
2022/01/23 01:08:49;;;;;;;12.90;4.70;;;5.60;99.90;;;;;;5018421;28;20040;-66
2022/01/23 01:11:53;;;;;;;8.10;4.50;;;5.60;99.90;;;;;;5025950;28;20045;-66
2022/01/23 01:35:35;;;;;;;10.05;5.15;;;5.50;99.90;;;;;;5027899;28;20052;-66
2022/01/23 01:38:00;;;;;;;11.25;5.10;;;5.50;99.90;;;;;;5012252;28;20145;-66
2022/01/23 01:40:27;;;;;;;15.60;5.32;;;5.50;99.90;;;;;;5026811;28;20163;-66
2022/01/23 01:42:53;;;;;;;11.35;5.40;;;5.50;99.90;;;;;;5028921;28;20574;-66
2022/01/23 01:45:24;;;;;;;10.63;5.30;;;5.50;99.90;;;;;;5026347;28;20052;-66
2022/01/23 01:47:52;;;;;;;11.40;5.47;;;5.50;99.90;;;;;;5015725;28;20066;-66
2022/01/23 01:50:18;;;;;;;15.10;5.75;;;5.50;99.90;;;;;;5009430;28;20037;-66
2022/01/23 01:52:44;;;;;;;14.30;5.97;;;5.50;99.90;;;;;;5025077;28;20044;-66
2022/01/23 01:55:15;;;;;;;8.95;5.68;;;5.50;99.90;;;;;;4997816;28;20050;-66
2022/01/23 01:57:50;;;;;;;10.80;5.72;;;5.50;99.90;;;;;;5030630;28;20495;-66
2022/01/23 02:00:40;;;;;;;11.80;5.88;;;5.50;99.90;;;;;;5014103;28;20500;-66
2022/01/23 02:03:25;;;;;;;11.73;5.47;;;5.50;99.90;;;;;;5025262;28;20430;-66
2022/01/23 02:08:38;;;;;;;13.07;5.50;;;5.50;99.90;;;;;;5042812;28;20056;-66
2022/01/23 02:11:43;;;;;;;12.88;5.03;;;5.50;99.90;;;;;;5016501;28;20053;-66
2022/01/23 02:14:10;;;;;;;11.85;5.70;;;5.50;99.90;;;;;;5027710;28;20049;-67
2022/01/23 02:17:05;;;;;;;12.30;6.05;;;5.50;99.90;;;;;;5026156;28;20152;-66
2022/01/23 02:55:12;;;;;;;14.43;5.50;;;5.50;99.90;;;;;;5023889;28;20123;-66
2022/01/23 03:00:13;;;;;;;9.80;5.33;;;5.50;99.90;;;;;;5015889;28;20898;-66
2022/01/23 03:02:46;;;;;;;8.80;5.10;;;5.50;99.90;;;;;;5030041;28;20559;-66
2022/01/23 03:05:14;;;;;;;10.70;5.50;;;5.50;99.90;;;;;;5003692;28;20049;-66
2022/01/23 03:10:25;;;;;;;13.93;5.22;;;5.50;99.90;;;;;;5047401;28;20044;-66
2022/01/23 03:31:44;;;;;;;14.93;5.75;;;5.60;99.90;;;;;;5034280;28;20045;-66
2022/01/23 03:34:11;;;;;;;11.68;5.50;;;5.60;99.90;;;;;;5013926;28;20090;-66
2022/01/23 03:36:38;;;;;;;11.32;5.40;;;5.60;99.90;;;;;;5010620;28;20072;-66
2022/01/23 03:39:08;;;;;;;13.60;5.65;;;5.60;99.90;;;;;;5021577;28;20126;-66
2022/01/23 03:41:36;;;;;;;11.32;6.03;;;5.50;99.90;;;;;;5030057;28;20044;-66
2022/01/23 03:44:05;;;;;;;11.07;5.32;;;5.60;99.90;;;;;;5029726;28;20053;-66
2022/01/23 03:49:33;;;;;;;17.13;5.93;;;5.60;99.90;;;;;;5025205;28;20036;-66
2022/01/23 03:52:04;;;;;;;13.63;5.78;;;5.50;99.90;;;;;;5033670;28;20205;-66
2022/01/23 03:54:30;;;;;;;11.90;4.93;;;5.50;99.90;;;;;;5028221;28;20048;-66
2022/01/23 03:56:58;;;;;;;10.77;5.63;;;5.60;99.90;;;;;;5033326;28;20056;-66
2022/01/23 03:59:25;;;;;;;14.30;5.63;;;5.60;99.90;;;;;;5029913;28;20624;-66
2022/01/23 04:01:50;;;;;;;12.02;5.68;;;5.50;99.90;;;;;;5033627;28;20132;-66
2022/01/23 04:04:38;;;;;;;9.43;4.70;;;5.50;99.90;;;;;;5035980;28;20052;-66
2022/01/23 04:07:13;;;;;;;12.95;4.85;;;5.50;99.90;;;;;;5016268;28;20125;-66
2022/01/23 04:09:41;;;;;;;9.32;5.28;;;5.60;99.90;;;;;;5027237;28;20040;-66
2022/01/23 04:12:09;;;;;;;9.30;5.18;;;5.50;99.90;;;;;;5027299;28;20523;-66
2022/01/23 04:14:39;;;;;;;12.07;4.82;;;5.50;99.90;;;;;;5027742;28;20051;-66
2022/01/23 04:20:21;;;;;;;9.98;5.65;;;5.60;99.90;;;;;;5008408;28;20060;-66
2022/01/23 04:33:58;;;;;;;14.80;6.70;;;5.60;99.90;;;;;;5013982;28;20360;-66
2022/01/23 05:01:12;;;;;;;13.50;6.30;;;5.50;99.90;;;;;;5023530;28;20055;-66
2022/01/23 05:06:28;;;;;;;11.02;6.22;;;5.50;99.90;;;;;;5010490;28;20484;-66
2022/01/23 05:08:54;;;;;;;17.08;6.60;;;5.50;99.90;;;;;;5004086;28;20095;-66
2022/01/23 05:11:20;;;;;;;13.27;6.55;;;5.50;99.90;;;;;;5026703;28;20156;-66
2022/01/23 05:13:46;;;;;;;14.30;6.93;;;5.50;99.90;;;;;;5008567;28;20082;-66
2022/01/23 05:16:12;;;;;;;10.90;6.07;;;5.50;99.90;;;;;;5022269;28;20393;-66
2022/01/23 05:18:39;;;;;;;11.43;5.88;;;5.50;99.90;;;;;;5024524;28;20198;-66
2022/01/23 05:21:31;;;;;;;11.90;5.80;;;5.50;99.90;;;;;;5017368;28;20130;-66
2022/01/23 05:23:52;;;;;;;14.95;6.68;;;5.50;99.90;;;;;;5019213;28;20050;-66
2022/01/23 05:26:18;;;;;;;11.80;6.03;;;5.50;99.90;;;;;;5024532;28;20128;-66
2022/01/23 05:28:44;;;;;;;13.40;6.25;;;5.50;99.90;;;;;;5022111;28;20554;-66
2022/01/23 05:31:10;;;;;;;11.52;5.95;;;5.50;99.90;;;;;;5024044;28;20893;-66
2022/01/23 05:33:36;;;;;;;13.63;6.60;;;5.50;99.90;;;;;;5026155;28;20049;-65
2022/01/23 05:36:02;;;;;;;12.90;6.25;;;5.50;99.90;;;;;;5039993;28;20085;-66
2022/01/23 05:38:27;;;;;;;12.48;6.03;;;5.50;99.90;;;;;;5008249;28;20825;-66
2022/01/23 05:40:57;;;;;;;12.20;5.90;;;5.50;99.90;;;;;;5028903;28;20048;-66
2022/01/23 05:43:24;;;;;;;9.68;5.82;;;5.50;99.90;;;;;;5024040;28;20086;-66
2022/01/23 05:45:51;;;;;;;12.57;5.53;;;5.50;99.90;;;;;;5029769;28;20045;-66
2022/01/23 05:48:17;;;;;;;12.95;5.70;;;5.50;99.90;;;;;;5013291;28;20045;-66
2022/01/23 05:50:45;;;;;;;10.10;6.13;;;5.50;99.90;;;;;;5026332;28;20049;-66
2022/01/23 05:53:11;;;;;;;11.25;6.18;;;5.50;99.90;;;;;;5016528;28;20053;-66
2022/01/23 05:55:37;;;;;;;13.50;5.55;;;5.50;99.90;;;;;;5022215;28;20037;-66
2022/01/23 05:58:04;;;;;;;10.57;5.53;;;5.50;99.90;;;;;;5013662;28;20501;-66
2022/01/23 06:00:30;;;;;;;17.30;6.50;;;5.50;99.90;;;;;;5026246;28;20053;-66
2022/01/23 06:02:56;;;;;;;13.27;5.88;;;5.50;99.90;;;;;;5036471;28;20760;-66
2022/01/23 06:05:21;;;;;;;10.23;5.93;;;5.50;99.90;;;;;;5028276;28;20051;-66
2022/01/23 06:07:50;;;;;;;8.45;5.40;;;5.50;99.90;;;;;;5013890;28;20050;-66
2022/01/23 06:10:25;;;;;;;13.10;6.53;;;5.50;99.90;;;;;;5029762;28;20051;-66
2022/01/23 06:12:51;;;;;;;9.30;5.35;;;5.50;99.90;;;;;;5019673;28;20049;-66
2022/01/23 06:15:17;;;;;;;7.32;5.10;;;5.50;99.90;;;;;;4996386;28;20570;-66
2022/01/23 06:17:44;;;;;;;9.70;5.25;;;5.50;99.90;;;;;;5028638;28;20080;-66
2022/01/23 06:20:12;;;;;;;9.48;5.68;;;5.40;99.90;;;;;;4999589;28;20056;-66
2022/01/23 06:22:38;;;;;;;10.35;4.97;;;5.50;99.90;;;;;;5029074;28;20103;-66
2022/01/23 06:25:08;;;;;;;8.40;4.97;;;5.50;99.90;;;;;;5018646;28;20045;-66
2022/01/23 06:27:34;;;;;;;9.95;5.40;;;5.40;99.90;;;;;;5030320;28;20064;-66
2022/01/23 06:29:59;;;;;;;11.15;5.35;;;5.40;99.90;;;;;;5028529;28;20045;-66
2022/01/23 06:32:25;;;;;;;10.70;5.97;;;5.40;99.90;;;;;;5014307;28;20488;-66
2022/01/23 06:34:52;;;;;;;9.75;5.28;;;5.40;99.90;;;;;;5011564;28;20578;-66
2022/01/23 06:37:17;;;;;;;11.90;4.93;;;5.40;99.90;;;;;;5031010;28;20045;-66
2022/01/23 06:39:43;;;;;;;7.72;5.22;;;5.40;99.90;;;;;;5029182;28;20056;-66
2022/01/23 06:42:10;;;;;;;9.15;5.72;;;5.40;99.90;;;;;;5016318;28;20676;-66
2022/01/23 06:44:37;;;;;;;10.18;5.43;;;5.40;99.90;;;;;;5029634;28;20053;-66
2022/01/23 06:47:04;;;;;;;9.43;6.22;;;5.40;99.90;;;;;;5029113;28;20132;-66
2022/01/23 06:49:30;;;;;;;10.32;6.38;;;5.30;99.90;;;;;;5036825;28;20068;-66
2022/01/23 06:51:57;;;;;;;12.98;7.00;;;5.30;99.90;;;;;;5032223;28;20493;-66
2022/01/23 06:54:23;;;;;;;13.25;7.20;;;5.30;99.90;;;;;;5028722;28;20701;-66
2022/01/23 06:56:48;;;;;;;13.07;6.78;;;5.30;99.90;;;;;;5030152;28;20048;-66
2022/01/23 06:59:16;;;;;;;14.13;7.40;;;5.30;99.90;;;;;;5019514;28;20056;-66
2022/01/23 07:01:42;;;;;;;10.73;6.90;;;5.30;99.90;;;;;;5012770;28;20130;-66
2022/01/23 07:04:07;;;;;;;13.45;7.32;;;5.20;99.90;;;;;;5029614;28;20045;-66
2022/01/23 07:06:33;;;;;;;12.15;7.30;;;5.20;99.90;;;;;;5027253;28;20049;-66
2022/01/23 07:08:59;;;;;;;13.52;7.85;;;5.20;99.90;;;;;;5014427;28;20180;-66
2022/01/23 07:11:25;;;;;;;13.90;8.27;;;5.20;99.90;;;;;;5030131;28;20049;-65
2022/01/23 07:13:51;;;;;;;14.07;8.13;;;5.20;99.90;;;;;;5027710;28;20088;-66
2022/01/23 07:16:16;;;;;;;14.07;8.80;;;5.10;99.90;;;;;;5031283;28;20053;-66
2022/01/23 07:18:42;;;;;;;16.33;9.02;;;5.10;99.90;;;;;;5029723;28;20144;-66
2022/01/23 07:21:08;;;;;;;13.80;8.65;;;5.10;99.90;;;;;;5026442;28;20049;-66
2022/01/23 07:23:34;;;;;;;15.15;8.98;;;5.10;99.90;;;;;;5009973;28;20055;-67
2022/01/23 07:26:00;;;;;;;14.85;8.60;;;5.10;99.90;;;;;;5011273;28;20045;-66
2022/01/23 07:28:36;;;;;;;20.92;9.18;;;5.10;99.90;;;;;;5026142;28;20040;-66
2022/01/23 07:31:04;;;;;;;15.23;9.40;;;5.10;99.90;;;;;;5027560;28;20049;-66
2022/01/23 07:33:33;;;;;;;14.93;8.93;;;5.10;99.90;;;;;;5019870;28;20056;-66
2022/01/23 07:35:59;;;;;;;15.23;9.23;;;5.00;99.90;;;;;;5028263;28;23006;-66
2022/01/23 07:38:25;;;;;;;16.10;8.68;;;5.00;99.90;;;;;;5011545;28;20041;-66
2022/01/23 07:40:51;;;;;;;14.38;8.07;;;5.00;99.90;;;;;;5032594;28;20300;-66
2022/01/23 07:43:17;;;;;;;11.25;7.80;;;5.00;99.90;;;;;;5034777;28;20133;-66
2022/01/23 07:45:43;;;;;;;11.18;7.20;;;5.00;99.90;;;;;;5032400;28;20045;-66
2022/01/23 07:48:09;;;;;;;13.25;7.90;;;5.00;99.90;;;;;;5029000;28;20049;-66
2022/01/23 07:50:36;;;;;;;9.90;6.55;;;4.90;99.90;;;;;;5026850;28;20053;-66
2022/01/23 07:53:03;;;;;;;13.48;6.82;;;4.90;99.90;;;;;;5031047;28;20056;-66
2022/01/23 07:55:29;;;;;;;11.50;6.78;;;5.00;99.90;;;;;;5008589;28;20527;-65
2022/01/23 07:58:02;;;;;;;14.13;8.13;;;4.90;99.90;;;;;;4998966;28;20107;-66
2022/01/23 08:00:28;;;;;;;19.42;9.82;;;4.90;99.90;;;;;;5015420;28;20136;-66
2022/01/23 08:02:54;;;;;;;19.50;10.43;;;4.90;99.90;;;;;;5020540;28;20538;-66
2022/01/23 08:05:21;;;;;;;21.25;10.25;;;5.00;99.90;;;;;;5031224;28;20037;-66
2022/01/23 08:07:46;;;;;;;18.60;10.23;;;5.00;99.90;;;;;;5014571;28;20149;-66
2022/01/23 08:10:15;;;;;;;22.85;11.10;;;5.00;99.90;;;;;;5005282;28;20171;-66
2022/01/23 08:12:41;;;;;;;20.33;10.93;;;5.00;99.90;;;;;;5034180;28;20392;-66
2022/01/23 08:15:08;;;;;;;19.52;10.10;;;5.10;99.90;;;;;;5028890;28;20056;-66
2022/01/23 08:17:34;;;;;;;21.35;11.13;;;5.10;99.90;;;;;;5009570;28;20731;-66
2022/01/23 08:20:02;;;;;;;21.77;10.30;;;5.20;99.90;;;;;;5028454;28;20050;-66
2022/01/23 08:22:30;;;;;;;20.10;9.85;;;5.10;99.90;;;;;;5012870;28;20051;-66
2022/01/23 08:24:57;;;;;;;15.00;9.10;;;5.10;99.90;;;;;;5025916;28;20068;-66
2022/01/23 08:27:24;;;;;;;14.35;8.70;;;5.10;99.90;;;;;;5011393;28;20523;-66
2022/01/23 08:29:50;;;;;;;16.23;8.65;;;5.20;99.90;;;;;;5030529;28;20040;-66
2022/01/23 08:32:16;;;;;;;16.48;8.75;;;5.20;99.90;;;;;;5031892;28;20045;-66
2022/01/23 08:34:42;;;;;;;12.13;8.07;;;5.20;99.90;;;;;;5018514;28;20044;-65
2022/01/23 08:37:09;;;;;;;15.15;8.48;;;5.20;99.90;;;;;;5014945;28;20052;-66
2022/01/23 08:39:37;;;;;;;14.60;7.45;;;5.20;99.90;;;;;;5041456;28;20627;-66
2022/01/23 08:42:05;;;;;;;14.70;8.02;;;5.30;99.90;;;;;;5012314;28;20048;-67
2022/01/23 08:44:31;;;;;;;12.40;7.57;;;5.30;99.90;;;;;;5022458;28;20347;-66
2022/01/23 08:46:58;;;;;;;12.55;7.50;;;5.30;99.90;;;;;;4997873;28;20068;-65
2022/01/23 08:49:27;;;;;;;14.13;7.70;;;5.30;99.90;;;;;;5025978;28;20052;-66
2022/01/23 08:51:55;;;;;;;11.43;7.45;;;5.30;99.90;;;;;;5026068;28;20048;-66
2022/01/23 08:54:22;;;;;;;15.98;8.25;;;5.40;99.90;;;;;;5024497;28;20060;-66
2022/01/23 08:56:48;;;;;;;16.13;8.73;;;5.40;99.90;;;;;;5022850;28;20059;-66
2022/01/23 08:59:14;;;;;;;17.00;8.38;;;5.40;99.90;;;;;;5031078;28;20493;-66
2022/01/23 09:01:40;;;;;;;19.10;8.98;;;5.50;99.90;;;;;;5020421;28;20127;-66
2022/01/23 09:04:07;;;;;;;14.55;8.43;;;5.50;99.90;;;;;;4993999;28;20055;-66
2022/01/23 09:06:33;;;;;;;13.95;8.35;;;5.50;99.90;;;;;;5023921;28;20040;-66
2022/01/23 09:09:01;;;;;;;14.52;8.05;;;5.50;99.90;;;;;;5008551;28;20043;-66
2022/01/23 09:14:10;;;;;;;;;;;5.60;99.90;;;;;;5026891;28;20068;-66
2022/01/23 09:16:44;;;;;;;13.63;7.68;;;5.70;99.90;;;;;;5012040;28;19920;-66
2022/01/23 09:19:10;;;;;;;11.13;7.13;;;5.60;99.90;;;;;;5039548;28;20080;-66
2022/01/23 09:21:38;;;;;;;11.20;7.22;;;5.60;99.90;;;;;;4972515;28;20123;-66
2022/01/23 09:24:05;;;;;;;13.85;7.75;;;5.60;99.90;;;;;;4997504;28;20044;-66
2022/01/23 09:26:33;;;;;;;13.07;7.95;;;5.60;99.90;;;;;;5022434;28;20145;-66
2022/01/23 09:29:01;;;;;;;11.23;7.40;;;5.60;99.90;;;;;;5024183;28;20109;-66
2022/01/23 09:31:44;;;;;;;11.98;7.70;;;5.70;99.90;;;;;;5039196;28;20110;-66
2022/01/23 09:34:10;;;;;;;11.35;7.50;;;5.70;99.90;;;;;;5005850;28;20525;-66
2022/01/23 09:36:36;;;;;;;13.82;8.38;;;5.70;99.90;;;;;;5026967;28;20807;-66
2022/01/23 09:39:04;;;;;;;11.20;7.32;;;5.80;99.90;;;;;;4996855;28;20083;-66
2022/01/23 09:41:31;;;;;;;12.15;7.55;;;5.80;99.90;;;;;;5012111;28;20055;-66
2022/01/23 09:43:59;;;;;;;11.13;7.40;;;5.80;99.90;;;;;;5029079;28;20044;-66
2022/01/23 09:46:25;;;;;;;11.00;7.10;;;5.90;99.90;;;;;;5028358;28;20480;-66
2022/01/23 09:48:52;;;;;;;11.10;7.10;;;5.90;99.90;;;;;;5026900;28;20049;-66
2022/01/23 09:51:22;;;;;;;10.63;6.85;;;6.00;99.90;;;;;;5036531;28;20040;-66
2022/01/23 09:53:51;;;;;;;11.13;6.88;;;6.00;99.90;;;;;;5029522;28;20053;-66
2022/01/23 09:56:24;;;;;;;8.77;5.82;;;6.00;99.90;;;;;;5015141;28;20055;-66
2022/01/23 09:58:51;;;;;;;9.82;6.65;;;6.00;99.90;;;;;;5018624;28;20068;-66
2022/01/23 10:01:18;;;;;;;12.05;7.28;;;6.00;99.90;;;;;;5027940;28;20041;-66
2022/01/23 10:03:44;;;;;;;10.95;6.75;;;6.10;99.90;;;;;;5023424;28;20657;-66
2022/01/23 10:06:10;;;;;;;11.55;6.78;;;6.20;99.90;;;;;;5025547;28;20044;-66
2022/01/23 10:08:36;;;;;;;9.32;6.40;;;6.20;99.90;;;;;;5029109;28;20539;-66
2022/01/23 10:11:08;;;;;;;9.88;5.55;;;6.30;99.90;;;;;;4999924;28;20063;-66
2022/01/23 10:13:34;;;;;;;7.70;5.20;;;6.30;99.90;;;;;;5028030;28;20048;-66
2022/01/23 10:16:00;;;;;;;6.95;4.25;;;6.30;99.90;;;;;;5025694;28;20037;-66
2022/01/23 10:18:27;;;;;;;5.57;3.95;;;6.40;99.90;;;;;;5001135;28;20518;-66
2022/01/23 10:20:53;;;;;;;4.47;3.45;;;6.40;99.90;;;;;;5017535;28;20426;-66
2022/01/23 10:23:19;;;;;;;6.80;3.53;;;6.40;99.90;;;;;;5025927;28;20049;-66
2022/01/23 10:25:47;;;;;;;4.63;3.47;;;6.40;99.90;;;;;;5009099;28;20037;-66
2022/01/23 10:28:20;;;;;;;4.38;3.38;;;6.40;99.90;;;;;;5034491;28;20052;-66
2022/01/23 10:30:55;;;;;;;;;;;6.50;99.90;;;;;;5011866;28;20037;-66
2022/01/23 10:33:24;;;;;;;6.28;4.30;;;6.50;99.90;;;;;;5026823;28;20043;-66
2022/01/23 10:35:59;;;;;;;6.80;3.92;;;6.50;99.90;;;;;;5025625;28;20803;-66
2022/01/23 10:38:31;;;;;;;6.45;4.20;;;6.50;99.90;;;;;;5024305;28;20060;-66
2022/01/23 10:49:21;;;;;;;7.00;3.95;;;6.60;99.90;;;;;;5016751;28;20501;-66
2022/01/23 10:51:50;;;;;;;6.25;4.20;;;6.60;99.90;;;;;;5029972;28;20046;-66
2022/01/23 10:54:20;;;;;;;5.10;3.65;;;6.70;99.90;;;;;;5036175;28;20451;-66
2022/01/23 10:57:07;;;;;;;6.32;3.33;;;6.70;99.90;;;;;;5028527;28;20041;-66
2022/01/23 10:59:40;;;;;;;4.22;3.30;;;6.70;99.90;;;;;;5019227;28;20080;-66
2022/01/23 11:02:12;;;;;;;4.13;3.15;;;6.80;99.90;;;;;;5013466;28;20136;-66
2022/01/23 11:04:58;;;;;;;4.68;2.50;;;6.80;99.90;;;;;;5027979;28;20045;-66
2022/01/23 11:07:25;;;;;;;3.88;2.35;;;6.80;99.90;;;;;;5030173;28;20049;-65
2022/01/23 11:10:04;;;;;;;3.83;2.70;;;6.80;99.90;;;;;;5027884;28;20059;-66
2022/01/23 11:18:15;;;;;;;5.43;2.35;;;6.90;99.90;;;;;;5035777;28;20057;-66
2022/01/23 11:20:46;;;;;;;3.72;2.90;;;7.00;99.90;;;;;;5030664;28;20037;-66
2022/01/23 11:23:18;;;;;;;4.65;2.90;;;7.00;99.90;;;;;;5018265;28;20054;-66
2022/01/23 11:25:56;;;;;;;4.00;2.67;;;6.90;99.90;;;;;;5035477;28;20136;-66
2022/01/23 11:28:37;;;;;;;4.68;3.10;;;6.90;99.90;;;;;;5027654;28;20045;-66
2022/01/23 11:31:10;;;;;;;4.60;2.72;;;6.90;99.90;;;;;;5022955;28;20053;-66
2022/01/23 11:33:36;;;;;;;3.75;2.67;;;7.00;99.90;;;;;;5036111;28;20052;-66
2022/01/23 11:36:02;;;;;;;4.15;2.90;;;7.00;99.90;;;;;;5027208;28;20051;-66
2022/01/23 11:38:29;;;;;;;5.32;3.30;;;7.00;99.90;;;;;;4996158;28;20523;-66
2022/01/23 11:54:52;;;;;;;4.82;3.38;;;7.10;99.90;;;;;;5028048;28;20072;-66
2022/01/23 11:57:33;;;;;;;5.90;3.53;;;7.20;99.90;;;;;;5029168;28;20045;-66
2022/01/23 12:00:02;;;;;;;5.72;3.35;;;7.20;99.90;;;;;;5013958;28;20118;-66
2022/01/23 12:02:39;;;;;;;4.85;3.33;;;7.20;99.90;;;;;;5017443;28;20522;-66
2022/01/23 12:05:12;;;;;;;3.65;3.00;;;7.20;99.90;;;;;;5027870;28;20527;-66
2022/01/23 12:07:39;;;;;;;;;;;7.20;99.90;;;;;;5016777;28;20412;-65
2022/01/23 12:10:22;;;;;;;5.90;3.40;;;7.20;99.90;;;;;;5030731;28;19986;-66
2022/01/23 12:12:51;;;;;;;5.57;3.75;;;7.20;99.90;;;;;;5036743;28;20053;-66
2022/01/23 12:18:37;;;;;;;5.60;3.50;;;7.30;99.90;;;;;;5025395;28;20128;-66
2022/01/23 12:21:03;;;;;;;4.75;3.30;;;7.30;99.90;;;;;;5006859;28;20052;-66
2022/01/23 12:23:59;;;;;;;3.70;3.30;;;7.30;99.90;;;;;;5011293;28;20398;-66
2022/01/23 12:26:25;;;;;;;5.93;3.30;;;7.30;99.90;;;;;;5034488;28;20118;-66
2022/01/23 12:28:51;;;;;;;4.47;3.40;;;7.30;99.90;;;;;;5010214;28;20049;-66
2022/01/23 12:31:24;;;;;;;5.03;3.20;;;7.30;99.90;;;;;;5029013;28;20045;-66
2022/01/23 12:34:00;;;;;;;6.40;3.25;;;7.30;99.90;;;;;;5026934;28;20103;-68
2022/01/23 12:36:32;;;;;;;5.38;3.45;;;7.40;99.90;;;;;;5028988;28;20110;-64
2022/01/23 12:39:07;;;;;;;4.50;3.30;;;7.30;99.90;;;;;;5026941;28;20052;-66
2022/01/23 12:41:36;;;;;;;4.75;3.25;;;7.40;99.90;;;;;;5034569;28;20136;-65
2022/01/23 12:44:28;;;;;;;4.82;3.30;;;7.40;99.90;;;;;;5026147;28;20490;-66
2022/01/23 12:46:55;;;;;;;3.67;2.97;;;7.40;99.90;;;;;;5031415;28;20046;-66
2022/01/23 12:49:26;;;;;;;3.63;3.08;;;7.40;99.90;;;;;;5033411;28;20053;-66
2022/01/23 12:52:19;;;;;;;4.82;3.17;;;7.40;99.90;;;;;;5031459;28;20049;-66
2022/01/23 12:55:06;;;;;;;4.97;3.05;;;7.30;99.90;;;;;;5025594;28;20045;-65
2022/01/23 12:57:38;;;;;;;3.70;2.85;;;7.30;99.90;;;;;;5027271;28;20103;-66
2022/01/23 13:00:12;;;;;;;4.20;3.05;;;7.30;99.90;;;;;;5014071;28;20066;-66
2022/01/23 13:02:45;;;;;;;3.30;2.75;;;7.30;99.90;;;;;;5033734;28;20052;-66
2022/01/23 13:05:12;;;;;;;4.43;3.25;;;7.30;99.90;;;;;;5031644;28;20132;-64
2022/01/23 13:08:03;;;;;;;3.85;2.90;;;7.40;99.90;;;;;;5037822;28;20351;-66
2022/01/23 13:16:24;;;;;;;4.78;3.20;;;7.40;99.90;;;;;;5035838;28;20053;-65
2022/01/23 13:28:21;;;;;;;4.63;3.33;;;7.40;99.90;;;;;;5034565;28;20049;-66
2022/01/23 13:30:24;;;;;;;4.43;3.58;;;7.40;99.90;;;;;;5014533;28;20045;-66
2022/01/23 13:32:58;;;;;;;6.15;3.80;;;7.40;99.90;;;;;;5028929;28;20049;-66
2022/01/23 13:35:29;;;;;;;4.85;3.30;;;7.40;99.90;;;;;;5033634;28;20555;-66
2022/01/23 13:37:58;;;;;;;5.00;3.53;;;7.40;99.90;;;;;;5036625;28;20123;-66
2022/01/23 13:40:28;;;;;;;13.77;4.22;;;7.40;99.90;;;;;;5026597;28;20041;-66
2022/01/23 13:59:21;;;;;;;6.78;4.40;;;7.30;99.90;;;;;;5025757;28;20204;-66
2022/01/23 14:02:08;;;;;;;6.75;4.60;;;7.30;99.90;;;;;;5028469;28;20053;-65
2022/01/23 14:04:41;;;;;;;7.25;4.65;;;7.30;99.90;;;;;;5023798;28;20045;-66
2022/01/23 14:07:07;;;;;;;5.70;4.40;;;7.30;99.90;;;;;;5032443;28;20048;-65
2022/01/23 14:09:43;;;;;;;5.57;4.38;;;7.30;99.90;;;;;;5030431;28;20044;-66
2022/01/23 14:12:17;;;;;;;9.82;4.78;;;7.30;99.90;;;;;;5028070;28;20093;-66
2022/01/23 14:15:08;;;;;;;6.50;4.40;;;7.30;99.90;;;;;;5030873;28;20127;-67
2022/01/23 14:17:39;;;;;;;8.60;4.78;;;7.30;99.90;;;;;;5032522;28;20053;-67
2022/01/23 14:20:08;;;;;;;6.10;4.70;;;7.30;99.90;;;;;;5029820;28;20049;-66
2022/01/23 14:22:37;;;;;;;6.22;4.65;;;7.20;99.90;;;;;;5024623;28;20083;-66
2022/01/23 14:25:09;;;;;;;10.27;5.10;;;7.20;99.90;;;;;;5015537;28;20077;-66
2022/01/23 14:27:35;;;;;;;6.93;4.72;;;7.20;99.90;;;;;;5027153;28;20041;-67
2022/01/23 14:30:06;;;;;;;6.88;5.15;;;7.30;99.90;;;;;;5040667;28;20071;-66
2022/01/23 14:32:44;;;;;;;8.18;5.10;;;7.30;99.90;;;;;;5034622;28;20576;-66
2022/01/23 14:35:12;;;;;;;7.88;5.55;;;7.30;99.90;;;;;;5036674;28;20049;-66
2022/01/23 14:37:40;;;;;;;9.05;5.03;;;7.20;99.90;;;;;;5047630;28;20164;-64
2022/01/23 14:40:19;;;;;;;7.28;5.22;;;7.20;99.90;;;;;;5038686;28;20048;-67
2022/01/23 14:42:59;;;;;;;7.25;4.85;;;7.20;99.90;;;;;;5029460;28;20049;-64
2022/01/23 14:45:27;;;;;;;7.13;4.63;;;7.20;99.90;;;;;;5015938;28;20043;-64
2022/01/23 14:47:53;;;;;;;9.15;5.40;;;7.20;99.90;;;;;;5048373;28;20107;-65
2022/01/23 14:50:23;;;;;;;8.48;5.43;;;7.20;99.90;;;;;;5014990;28;20050;-66
2022/01/23 14:52:49;;;;;;;6.07;4.90;;;7.10;99.90;;;;;;5030510;28;20049;-66
2022/01/23 14:55:15;;;;;;;8.30;5.05;;;7.10;99.90;;;;;;5045831;28;20045;-64
2022/01/23 14:57:41;;;;;;;7.15;5.30;;;7.10;99.90;;;;;;5015814;28;20364;-66
2022/01/23 15:00:10;;;;;;;8.07;4.85;;;7.10;99.90;;;;;;5014773;28;20606;-66
2022/01/23 15:02:36;;;;;;;8.85;5.10;;;7.10;99.90;;;;;;5049522;28;20045;-66
2022/01/23 15:05:04;;;;;;;8.63;5.22;;;7.10;99.90;;;;;;5019164;28;20522;-65
2022/01/23 15:07:37;;;;;;;6.85;5.15;;;7.10;99.90;;;;;;5030211;28;20106;-64
2022/01/23 15:10:06;;;;;;;8.45;5.45;;;7.10;99.90;;;;;;5019999;28;20159;-65
2022/01/23 15:12:32;;;;;;;9.43;5.40;;;7.00;99.90;;;;;;5032257;28;20135;-66
2022/01/23 15:14:57;;;;;;;8.00;4.95;;;7.00;99.90;;;;;;5035867;28;20565;-66
2022/01/23 15:17:26;;;;;;;6.93;4.82;;;7.00;99.90;;;;;;5017221;28;20053;-67
2022/01/23 15:19:52;;;;;;;8.18;4.78;;;7.00;99.90;;;;;;5033399;28;20060;-66
2022/01/23 15:22:19;;;;;;;8.50;4.57;;;7.00;99.90;;;;;;5032006;28;20385;-67
2022/01/23 15:24:46;;;;;;;10.20;5.25;;;7.00;99.90;;;;;;5013882;28;20401;-66
2022/01/23 15:27:14;;;;;;;9.80;5.28;;;7.00;99.90;;;;;;5017122;28;20120;-67
2022/01/23 15:29:39;;;;;;;8.13;5.75;;;6.90;99.90;;;;;;5026499;28;20816;-65
2022/01/23 15:32:06;;;;;;;8.27;5.95;;;6.90;99.90;;;;;;5017108;28;20052;-66
2022/01/23 15:34:35;;;;;;;7.82;5.20;;;7.00;99.90;;;;;;4994707;28;20358;-66
2022/01/23 15:37:01;;;;;;;9.30;5.80;;;6.90;99.90;;;;;;5018314;28;20677;-65
2022/01/23 15:39:28;;;;;;;8.70;5.28;;;6.90;99.90;;;;;;5042919;28;20056;-66
2022/01/23 15:41:56;;;;;;;10.48;5.40;;;6.90;99.90;;;;;;5026155;28;20481;-64
2022/01/23 15:44:22;;;;;;;7.20;5.05;;;6.90;99.90;;;;;;4995641;28;20520;-66
2022/01/23 15:46:49;;;;;;;8.90;5.25;;;6.90;99.90;;;;;;5029649;28;20048;-66
2022/01/23 15:49:20;;;;;;;9.00;5.50;;;6.80;99.90;;;;;;5028830;28;20041;-66
2022/01/23 15:51:47;;;;;;;6.13;4.88;;;6.80;99.90;;;;;;5030040;28;20055;-66
2022/01/23 15:54:15;;;;;;;8.90;5.18;;;6.80;99.90;;;;;;5018238;28;20045;-66
2022/01/23 15:56:42;;;;;;;8.95;5.35;;;6.80;99.90;;;;;;5024386;28;20056;-65
2022/01/23 15:59:08;;;;;;;8.25;5.32;;;6.80;99.90;;;;;;5042212;28;20395;-66
2022/01/23 16:01:35;;;;;;;7.10;4.82;;;6.80;99.90;;;;;;5013861;28;20049;-66
2022/01/23 16:04:01;;;;;;;8.40;5.22;;;6.70;99.90;;;;;;5019084;28;20103;-66
2022/01/23 16:06:27;;;;;;;9.63;5.22;;;6.70;99.90;;;;;;5041388;28;20053;-66
2022/01/23 16:08:53;;;;;;;6.68;4.82;;;6.70;99.90;;;;;;5026843;28;20049;-66
2022/01/23 16:11:19;;;;;;;7.90;5.70;;;6.70;99.90;;;;;;5017278;28;20803;-66
2022/01/23 16:13:45;;;;;;;7.53;5.13;;;6.70;99.90;;;;;;5026964;28;20443;-66
2022/01/23 16:16:11;;;;;;;7.38;5.05;;;6.70;99.90;;;;;;5034025;28;20060;-67
2022/01/23 16:18:37;;;;;;;7.47;4.88;;;6.70;99.90;;;;;;5028463;28;20232;-65
2022/01/23 16:21:03;;;;;;;7.65;5.38;;;6.60;99.90;;;;;;5021059;28;20049;-66
2022/01/23 16:23:29;;;;;;;11.93;5.47;;;6.70;99.90;;;;;;5026787;28;20569;-66
2022/01/23 16:25:55;;;;;;;7.63;5.28;;;6.60;99.90;;;;;;5024968;28;20038;-66
2022/01/23 16:28:21;;;;;;;8.30;5.80;;;6.50;99.90;;;;;;5031706;28;20099;-66